Karbers Ridge, Illinois
Current Conditions -  °F | °C
As of 7:15 PM on Friday 31 Oct 2014 (Local Time) from KHSB Reporting Station
Broken Clouds Broken Clouds  
Wind Chill: 36°   Ceiling: 6000
Heat Index: 43°   Visibility: 10mi
Dew Point: 22°   Wind: 13mph
Humidity: 45%   Direction: 340°NNW
Pressure: 30.27"   Gusts: 21mph
Location:  37.58°N, 88.33°W
Report Text: KHSB 010015Z AUTO 34011G18KT 10SM BKN060 06/M05 A3027 RMK AO2 T00601053
Loading
Personal Weather Stations






























Interactive Weather Map
Tropical Storm Tracking
New forecast layout! Learn more

10-Day Weather Forecast

Advertisements
Track Severe Weather on mobile